Time;durP1;ratioP1;P1;durP2;ratioP2;P2;SDS_P1;SDS_P2;PMS_P1;PMS_P2;Temp;Humidity;BMP_temperature;BMP_pressure;BME280_temperature;BME280_humidity;BME280_pressure;Samples;Min_cycle;Max_cycle;Signal;HPM_P1;HPM_P2
2022/02/28 00:01:24;;;;;;;12.25;7.40;;;3.10;99.90;;;;;;12486416;28;20571;-36
2022/02/28 00:07:26;;;;;;;13.32;7.05;;;3.00;99.90;;;;;;12484631;28;20087;-37
2022/02/28 00:13:28;;;;;;;10.70;6.15;;;2.90;99.90;;;;;;12484697;28;20127;-40
2022/02/28 00:19:30;;;;;;;13.95;7.43;;;2.70;99.90;;;;;;12487203;28;20057;-36
2022/02/28 00:25:32;;;;;;;13.75;7.93;;;2.50;99.90;;;;;;12496558;28;20056;-37
2022/02/28 00:31:33;;;;;;;14.15;8.52;;;2.20;99.90;;;;;;12533006;28;20097;-36
2022/02/28 00:37:36;;;;;;;17.15;9.30;;;2.00;99.90;;;;;;12536251;28;20098;-41
2022/02/28 00:43:38;;;;;;;16.02;7.85;;;1.80;99.90;;;;;;12535634;28;20109;-40
2022/02/28 00:49:40;;;;;;;16.42;8.90;;;1.60;99.90;;;;;;12531785;28;20063;-40
2022/02/28 00:55:42;;;;;;;16.75;9.88;;;1.40;99.90;;;;;;12514605;28;20105;-36
2022/02/28 01:01:44;;;;;;;19.15;9.30;;;1.30;99.90;;;;;;12535373;28;20052;-40
2022/02/28 01:07:48;;;;;;;16.10;8.63;;;1.30;99.90;;;;;;12533289;28;20055;-36
2022/02/28 01:13:50;;;;;;;19.13;9.88;;;1.20;99.90;;;;;;12531855;28;20727;-40
2022/02/28 01:19:52;;;;;;;18.35;10.15;;;1.10;99.90;;;;;;12534113;28;20439;-36
2022/02/28 01:25:53;;;;;;;19.50;10.60;;;1.10;99.90;;;;;;12534732;28;20044;-37
2022/02/28 01:31:55;;;;;;;16.20;8.48;;;1.00;99.90;;;;;;12532462;28;20472;-36
2022/02/28 01:37:58;;;;;;;16.25;8.35;;;1.20;99.90;;;;;;12531483;28;20447;-40
2022/02/28 01:44:00;;;;;;;14.57;8.23;;;1.30;99.90;;;;;;12534886;28;20053;-39
2022/02/28 01:50:03;;;;;;;14.95;7.32;;;1.60;99.90;;;;;;12531993;28;20489;-40
2022/02/28 01:56:05;;;;;;;12.80;7.57;;;1.60;99.90;;;;;;12529201;28;20353;-37
2022/02/28 02:02:07;;;;;;;14.70;7.45;;;1.80;99.90;;;;;;12531720;28;20143;-36
2022/02/28 02:08:09;;;;;;;14.60;7.78;;;1.80;99.90;;;;;;12544654;28;20504;-36
2022/02/28 02:14:11;;;;;;;13.05;7.13;;;1.60;99.90;;;;;;12543871;28;20160;-36
2022/02/28 02:20:19;;;;;;;13.60;8.05;;;1.40;99.90;;;;;;12538090;28;20057;-39
2022/02/28 02:26:21;;;;;;;15.15;8.27;;;1.30;99.90;;;;;;12545436;28;20056;-40
2022/02/28 02:32:23;;;;;;;16.65;9.38;;;1.30;99.90;;;;;;12537644;28;20165;-40
2022/02/28 02:38:27;;;;;;;20.77;9.60;;;1.10;99.90;;;;;;12543900;28;20041;-36
2022/02/28 02:44:32;;;;;;;17.65;9.75;;;1.00;99.90;;;;;;12538753;28;20060;-36
2022/02/28 02:50:35;;;;;;;14.27;8.45;;;0.90;99.90;;;;;;12539014;28;20389;-40
2022/02/28 02:56:36;;;;;;;17.70;9.00;;;0.70;99.90;;;;;;12538334;28;20071;-36
2022/02/28 03:02:38;;;;;;;16.85;9.77;;;0.70;99.90;;;;;;12540249;28;20102;-40
2022/02/28 03:08:40;;;;;;;18.10;9.95;;;0.70;99.90;;;;;;12539470;28;20500;-36
2022/02/28 03:14:42;;;;;;;21.45;10.00;;;0.60;99.90;;;;;;12538112;28;20052;-36
2022/02/28 03:20:44;;;;;;;17.23;10.23;;;0.60;99.90;;;;;;12534717;28;20121;-38
2022/02/28 03:26:46;;;;;;;17.90;9.05;;;0.50;99.90;;;;;;12539386;28;20103;-40
2022/02/28 03:32:48;;;;;;;21.10;9.25;;;0.50;99.90;;;;;;12538335;28;20109;-36
2022/02/28 03:38:51;;;;;;;17.27;10.23;;;0.60;99.90;;;;;;12538224;28;20060;-37
2022/02/28 03:44:53;;;;;;;16.60;9.40;;;0.60;99.90;;;;;;12536812;28;20076;-40
2022/02/28 03:50:55;;;;;;;15.70;9.25;;;0.50;99.90;;;;;;12540577;28;20132;-36
2022/02/28 03:56:57;;;;;;;16.10;9.15;;;0.50;99.90;;;;;;12531963;28;20048;-37
2022/02/28 04:02:58;;;;;;;15.50;8.55;;;0.40;99.90;;;;;;12534020;28;20044;-41
2022/02/28 04:09:01;;;;;;;17.20;9.30;;;0.40;99.90;;;;;;12530734;28;20103;-39
2022/02/28 04:15:03;;;;;;;15.00;8.45;;;0.40;99.90;;;;;;12533020;28;20049;-40
2022/02/28 04:21:05;;;;;;;15.23;8.10;;;0.30;99.90;;;;;;12537307;28;20046;-36
2022/02/28 04:27:07;;;;;;;15.65;8.70;;;0.40;99.90;;;;;;12529389;28;20756;-41
2022/02/28 04:33:09;;;;;;;16.33;8.68;;;0.20;99.90;;;;;;12533226;28;20168;-42
2022/02/28 04:39:12;;;;;;;15.57;8.60;;;0.10;99.90;;;;;;12533965;28;20057;-40
2022/02/28 04:45:15;;;;;;;14.30;8.00;;;0.20;99.90;;;;;;12534799;28;20895;-42
2022/02/28 04:51:17;;;;;;;15.52;8.25;;;0.20;99.90;;;;;;12534848;28;20063;-36
2022/02/28 04:57:18;;;;;;;14.85;8.27;;;0.10;99.90;;;;;;12534925;28;20056;-36
2022/02/28 05:03:20;;;;;;;19.50;8.65;;;0.40;99.90;;;;;;12532997;28;20041;-36
2022/02/28 05:09:22;;;;;;;18.60;9.65;;;0.50;99.90;;;;;;12533579;28;20052;-36
2022/02/28 05:15:24;;;;;;;20.67;9.93;;;0.60;99.90;;;;;;12533399;28;20052;-36
2022/02/28 05:21:26;;;;;;;19.38;7.93;;;0.70;99.90;;;;;;12535186;28;20048;-40
2022/02/28 05:27:35;;;;;;;14.30;8.40;;;0.60;99.90;;;;;;12528816;28;20049;-37
2022/02/28 05:33:37;;;;;;;14.82;7.90;;;0.20;99.90;;;;;;12529443;28;20063;-40
2022/02/28 05:39:39;;;;;;;17.10;7.97;;;0.00;99.90;;;;;;12537392;28;20129;-41
2022/02/28 05:45:41;;;;;;;14.95;8.73;;;0.00;99.90;;;;;;12541009;28;20087;-39
2022/02/28 05:51:43;;;;;;;15.75;8.25;;;-0.10;99.90;;;;;;12538663;28;20348;-37
2022/02/28 05:57:45;;;;;;;13.35;7.97;;;0.00;99.90;;;;;;12541543;28;20083;-36
2022/02/28 06:03:47;;;;;;;19.20;8.48;;;0.40;99.90;;;;;;12540140;28;20044;-37
2022/02/28 06:09:49;;;;;;;13.32;6.75;;;0.50;99.90;;;;;;12539929;28;20527;-41
2022/02/28 06:15:51;;;;;;;14.00;7.88;;;0.80;99.90;;;;;;12534241;28;20048;-40
2022/02/28 06:21:52;;;;;;;14.65;6.90;;;0.90;99.90;;;;;;12537757;28;20044;-36
2022/02/28 06:27:54;;;;;;;13.60;7.78;;;1.00;99.90;;;;;;12538729;28;20101;-40
2022/02/28 06:33:56;;;;;;;12.82;7.78;;;1.20;99.90;;;;;;12539264;28;20044;-36
2022/02/28 06:39:58;;;;;;;12.50;7.07;;;1.30;99.90;;;;;;12538942;28;20117;-37
2022/02/28 06:46:00;;;;;;;15.05;7.28;;;1.30;99.90;;;;;;12535493;28;20127;-37
2022/02/28 06:52:03;;;;;;;13.45;7.70;;;1.40;99.90;;;;;;12536118;28;20045;-40
2022/02/28 06:58:05;;;;;;;14.27;8.02;;;1.60;99.90;;;;;;12535235;28;23030;-42
2022/02/28 07:04:11;;;;;;;15.60;7.13;;;1.70;99.90;;;;;;12534153;28;20052;-38
2022/02/28 07:10:13;;;;;;;12.68;6.93;;;1.70;99.90;;;;;;12539133;28;20569;-37
2022/02/28 07:16:16;;;;;;;14.18;7.10;;;1.90;99.90;;;;;;12538976;28;20896;-37
2022/02/28 07:22:18;;;;;;;13.63;7.43;;;2.00;99.90;;;;;;12533829;28;20048;-36
2022/02/28 07:28:20;;;;;;;14.35;7.80;;;2.20;99.90;;;;;;12534296;28;20085;-37
2022/02/28 07:34:23;;;;;;;10.90;6.65;;;2.30;99.90;;;;;;12533194;28;20498;-36
2022/02/28 07:40:25;;;;;;;18.73;7.03;;;2.50;99.90;;;;;;12534237;28;20413;-36
2022/02/28 07:46:27;;;;;;;13.18;7.15;;;2.60;99.90;;;;;;12533731;28;20049;-40
2022/02/28 07:52:31;;;;;;;12.18;7.28;;;2.80;99.90;;;;;;12536455;28;20056;-39
2022/02/28 07:58:33;;;;;;;12.48;6.88;;;3.10;99.90;;;;;;12531920;28;20056;-36
2022/02/28 08:04:36;;;;;;;12.07;7.03;;;3.30;99.90;;;;;;12533058;28;20090;-36
2022/02/28 08:10:37;;;;;;;10.75;6.75;;;3.50;99.90;;;;;;12529344;28;20445;-36
2022/02/28 08:16:39;;;;;;;14.00;7.18;;;3.80;99.90;;;;;;12534562;28;20105;-40
2022/02/28 08:22:42;;;;;;;12.73;6.43;;;4.00;99.90;;;;;;12535175;28;20059;-36
2022/02/28 08:28:49;;;;;;;10.50;6.40;;;4.20;99.90;;;;;;12530030;28;20460;-36
2022/02/28 08:34:54;;;;;;;13.25;6.82;;;4.50;99.90;;;;;;12532146;28;20090;-40
2022/02/28 08:40:57;;;;;;;11.55;6.68;;;4.60;99.90;;;;;;12529827;28;20070;-36
2022/02/28 08:47:01;;;;;;;11.38;5.95;;;4.70;99.90;;;;;;12538503;28;20385;-36
2022/02/28 08:53:03;;;;;;;10.93;6.60;;;4.80;99.90;;;;;;12514022;28;20052;-36
2022/02/28 08:59:05;;;;;;;9.98;5.65;;;5.10;99.90;;;;;;12533328;28;20079;-40
2022/02/28 09:05:08;;;;;;;13.38;6.43;;;5.30;99.90;;;;;;12534023;28;20041;-37
2022/02/28 09:11:10;;;;;;;10.93;6.30;;;5.40;99.90;;;;;;12528886;28;20044;-40
2022/02/28 09:17:12;;;;;;;10.82;6.22;;;5.50;99.90;;;;;;12533774;28;20109;-36
2022/02/28 09:23:14;;;;;;;10.95;6.38;;;5.70;99.90;;;;;;12533199;28;20127;-41
2022/02/28 09:29:16;;;;;;;10.02;6.18;;;5.80;99.90;;;;;;12526651;28;20105;-39
2022/02/28 09:35:19;;;;;;;8.75;5.80;;;5.90;99.90;;;;;;12534895;28;20052;-36
2022/02/28 09:41:22;;;;;;;9.85;5.90;;;6.10;99.90;;;;;;12531580;28;20102;-39
2022/02/28 09:47:27;;;;;;;10.65;5.93;;;6.30;99.90;;;;;;12529878;28;20060;-35
2022/02/28 09:53:29;;;;;;;;;;;6.40;99.90;;;;;;12533411;28;20052;-36
2022/02/28 09:59:30;;;;;;;9.38;5.93;;;6.40;99.90;;;;;;12530450;28;19993;-40
2022/02/28 10:05:34;;;;;;;9.55;6.00;;;6.50;99.90;;;;;;12533399;28;20595;-39
2022/02/28 10:11:39;;;;;;;10.57;6.10;;;6.40;99.90;;;;;;12529482;28;20136;-36
2022/02/28 10:17:43;;;;;;;11.25;5.93;;;6.60;99.90;;;;;;12529250;28;20052;-40
2022/02/28 10:23:51;;;;;;;10.73;6.03;;;6.70;99.90;;;;;;12531464;28;20626;-37
2022/02/28 10:29:55;;;;;;;9.82;6.30;;;7.00;99.90;;;;;;12544486;28;20135;-39
2022/02/28 10:36:13;;;;;;;9.00;5.90;;;7.00;99.90;;;;;;12543929;28;20585;-39
2022/02/28 10:42:16;;;;;;;9.57;6.25;;;7.00;99.90;;;;;;12543086;28;20048;-36
2022/02/28 10:48:19;;;;;;;9.85;5.65;;;7.30;99.90;;;;;;12538667;28;20049;-36
2022/02/28 10:54:28;;;;;;;9.10;5.80;;;7.20;99.90;;;;;;12538605;28;20079;-40
2022/02/28 11:00:31;;;;;;;8.70;5.35;;;7.40;99.90;;;;;;12536129;28;20052;-37
2022/02/28 11:06:37;;;;;;;10.05;5.78;;;7.40;99.90;;;;;;12538198;28;20053;-40
2022/02/28 11:12:40;;;;;;;10.57;5.88;;;7.40;99.90;;;;;;12542319;28;20099;-36
2022/02/28 11:18:43;;;;;;;11.75;6.43;;;7.40;99.90;;;;;;12537737;28;20049;-39
2022/02/28 11:24:46;;;;;;;8.85;5.57;;;7.70;99.90;;;;;;12535597;28;20053;-40
2022/02/28 11:30:48;;;;;;;9.23;5.57;;;7.70;99.90;;;;;;12539164;28;20147;-41
2022/02/28 11:37:04;;;;;;;7.75;5.35;;;7.70;99.90;;;;;;12537501;28;20056;-38
2022/02/28 11:43:24;;;;;;;9.20;5.60;;;7.90;99.90;;;;;;12539810;28;20112;-40
2022/02/28 11:49:26;;;;;;;9.45;5.78;;;7.90;99.90;;;;;;12544074;28;20199;-41
2022/02/28 11:55:30;;;;;;;9.95;6.15;;;7.90;99.90;;;;;;12540955;28;20053;-38
2022/02/28 12:01:40;;;;;;;10.65;6.93;;;8.30;99.90;;;;;;12520940;28;20049;-41
2022/02/28 12:07:42;;;;;;;10.60;6.43;;;8.60;99.90;;;;;;12534778;28;20055;-37
2022/02/28 12:13:57;;;;;;;10.90;5.78;;;8.60;99.90;;;;;;12535165;28;20056;-37
2022/02/28 12:20:14;;;;;;;13.80;8.85;;;8.60;99.90;;;;;;12537149;28;20144;-37
2022/02/28 12:26:16;;;;;;;9.25;6.65;;;8.70;99.90;;;;;;12529152;28;20124;-37
2022/02/28 12:32:48;;;;;;;9.65;5.80;;;8.70;99.90;;;;;;12536661;28;20065;-37
2022/02/28 12:39:08;;;;;;;12.80;7.22;;;8.90;99.90;;;;;;12541722;28;20705;-36
2022/02/28 12:45:15;;;;;;;9.13;5.93;;;8.80;99.90;;;;;;12535664;28;20075;-41
2022/02/28 12:51:20;;;;;;;8.75;5.60;;;8.70;99.90;;;;;;12532932;28;20474;-37
2022/02/28 12:57:22;;;;;;;8.48;5.40;;;8.90;99.90;;;;;;12519565;28;20409;-37
2022/02/28 13:03:24;;;;;;;8.70;5.45;;;8.80;99.90;;;;;;12532635;28;20148;-41
2022/02/28 13:09:26;;;;;;;11.80;5.88;;;8.90;99.90;;;;;;12535971;28;20516;-37
2022/02/28 13:15:31;;;;;;;17.05;10.65;;;9.00;99.90;;;;;;12528630;28;20136;-37
2022/02/28 13:21:36;;;;;;;10.77;8.50;;;9.10;99.90;;;;;;12531755;28;20045;-36
2022/02/28 13:27:38;;;;;;;8.82;6.55;;;9.10;99.90;;;;;;12526154;28;20064;-36
2022/02/28 13:33:40;;;;;;;14.00;9.50;;;9.00;99.90;;;;;;12528239;28;20625;-41
2022/02/28 13:39:42;;;;;;;8.50;4.60;;;9.10;99.90;;;;;;12514898;28;20169;-42
2022/02/28 13:45:49;;;;;;;9.30;4.95;;;9.20;99.90;;;;;;12534394;28;20048;-40
2022/02/28 13:51:56;;;;;;;7.63;4.60;;;9.10;99.90;;;;;;12531084;28;20052;-41
2022/02/28 13:58:02;;;;;;;7.10;4.60;;;9.20;99.90;;;;;;12540051;28;20068;-37
2022/02/28 14:04:05;;;;;;;7.25;4.65;;;9.30;99.90;;;;;;12531676;28;20098;-40
2022/02/28 14:10:08;;;;;;;9.00;5.10;;;9.30;99.90;;;;;;12534989;28;20049;-37
2022/02/28 14:16:16;;;;;;;8.15;5.32;;;9.30;99.90;;;;;;12537125;28;20489;-41
2022/02/28 14:22:19;;;;;;;8.65;5.40;;;9.30;99.90;;;;;;12534734;28;20069;-41
2022/02/28 14:28:23;;;;;;;6.85;3.75;;;9.20;99.90;;;;;;12542676;28;20140;-36
2022/02/28 14:34:28;;;;;;;7.50;4.38;;;9.20;99.90;;;;;;12540309;28;22982;-38
2022/02/28 14:40:31;;;;;;;8.43;4.50;;;9.20;99.90;;;;;;12543956;28;20053;-40
2022/02/28 14:46:33;;;;;;;8.00;5.13;;;9.30;99.90;;;;;;12519146;28;20109;-40
2022/02/28 14:52:35;;;;;;;7.32;4.57;;;9.30;99.90;;;;;;12533109;28;20053;-37
2022/02/28 14:58:38;;;;;;;7.13;4.25;;;9.20;99.90;;;;;;12526984;28;20049;-40
2022/02/28 15:04:40;;;;;;;6.53;4.28;;;9.30;99.90;;;;;;12534367;28;20308;-37
2022/02/28 15:10:43;;;;;;;8.18;4.88;;;9.20;99.90;;;;;;12535833;28;20059;-40
2022/02/28 15:16:45;;;;;;;9.55;4.75;;;9.20;99.90;;;;;;12530368;28;20049;-42
2022/02/28 15:22:47;;;;;;;7.30;4.82;;;9.20;99.90;;;;;;12532723;28;20076;-42
2022/02/28 15:28:49;;;;;;;7.72;5.30;;;9.10;99.90;;;;;;12536343;28;20530;-37
2022/02/28 15:34:52;;;;;;;8.85;4.90;;;9.10;99.90;;;;;;12533810;28;20417;-41
2022/02/28 15:40:54;;;;;;;8.63;5.05;;;9.00;99.90;;;;;;12536720;28;20045;-42
2022/02/28 15:46:56;;;;;;;7.05;4.40;;;8.90;99.90;;;;;;12534566;28;20048;-39
2022/02/28 15:52:57;;;;;;;9.63;4.35;;;8.90;99.90;;;;;;12535482;28;20091;-41
2022/02/28 15:59:02;;;;;;;8.30;4.95;;;8.80;99.90;;;;;;12525122;28;20052;-41
2022/02/28 16:05:10;;;;;;;9.73;5.65;;;8.70;99.90;;;;;;12525770;28;20440;-37
2022/02/28 16:11:13;;;;;;;7.00;4.37;;;8.50;99.90;;;;;;12532211;28;20045;-41
2022/02/28 16:17:15;;;;;;;6.93;4.25;;;8.40;99.90;;;;;;12531249;28;20386;-40
2022/02/28 16:23:17;;;;;;;9.05;5.38;;;8.30;99.90;;;;;;12533643;28;20098;-37
2022/02/28 16:29:19;;;;;;;10.05;5.55;;;8.10;99.90;;;;;;12484402;28;20902;-37
2022/02/28 16:35:21;;;;;;;12.18;6.15;;;8.10;99.90;;;;;;12481189;28;20565;-41
2022/02/28 16:41:23;;;;;;;8.95;5.57;;;7.80;99.90;;;;;;12481185;28;20053;-40
2022/02/28 16:47:26;;;;;;;9.60;5.78;;;7.80;99.90;;;;;;12484935;28;20041;-41
2022/02/28 16:53:29;;;;;;;10.02;6.50;;;7.70;99.90;;;;;;12487556;28;20049;-40
2022/02/28 16:59:31;;;;;;;12.23;6.72;;;7.50;99.90;;;;;;12483877;28;20049;-41
2022/02/28 17:05:35;;;;;;;12.90;6.78;;;7.30;99.90;;;;;;12484774;28;20841;-42
2022/02/28 17:11:38;;;;;;;11.98;6.85;;;7.00;99.90;;;;;;12481307;28;20076;-40
2022/02/28 17:17:41;;;;;;;15.70;7.93;;;6.80;99.90;;;;;;12479084;28;20057;-42
2022/02/28 17:23:43;;;;;;;15.00;7.35;;;6.60;99.90;;;;;;12479288;28;20067;-42
2022/02/28 17:29:45;;;;;;;16.98;8.05;;;6.50;99.90;;;;;;12529095;28;20182;-37
2022/02/28 17:35:48;;;;;;;14.32;8.57;;;6.20;99.90;;;;;;12547287;28;20109;-37
2022/02/28 17:41:50;;;;;;;16.45;9.50;;;6.10;99.90;;;;;;12546634;28;20048;-41
2022/02/28 17:47:52;;;;;;;15.23;9.75;;;6.00;99.90;;;;;;12554466;28;20095;-41
2022/02/28 17:53:57;;;;;;;15.38;8.90;;;5.80;99.90;;;;;;12551864;28;20174;-37
2022/02/28 18:00:02;;;;;;;16.75;9.70;;;5.60;99.90;;;;;;12547697;28;20053;-41
2022/02/28 18:06:04;;;;;;;;;;;5.50;99.90;;;;;;12552219;28;20044;-41
2022/02/28 18:12:07;;;;;;;15.68;9.80;;;5.40;99.90;;;;;;12544830;28;19985;-36
2022/02/28 18:18:09;;;;;;;22.45;12.05;;;5.30;99.90;;;;;;12549260;28;20526;-36
2022/02/28 18:24:11;;;;;;;22.55;12.25;;;5.10;99.90;;;;;;12548516;28;20098;-37
2022/02/28 18:30:14;;;;;;;17.25;10.32;;;5.20;99.90;;;;;;12544588;28;20049;-40
2022/02/28 18:36:17;;;;;;;16.45;8.82;;;5.10;99.90;;;;;;12547997;28;20519;-37
2022/02/28 18:42:18;;;;;;;13.57;8.65;;;5.10;99.90;;;;;;12545329;28;20095;-36
2022/02/28 18:48:28;;;;;;;13.65;8.00;;;4.90;99.90;;;;;;12528248;28;20125;-40
2022/02/28 18:54:30;;;;;;;13.75;8.85;;;4.80;99.90;;;;;;12531317;28;20169;-40
2022/02/28 19:00:32;;;;;;;19.05;9.95;;;4.70;99.90;;;;;;12538579;28;20086;-41
2022/02/28 19:06:35;;;;;;;16.38;9.68;;;4.60;99.90;;;;;;12542823;28;20430;-40
2022/02/28 19:12:37;;;;;;;15.30;9.70;;;4.40;99.90;;;;;;12543203;28;20068;-41
2022/02/28 19:18:39;;;;;;;18.20;10.02;;;4.30;99.90;;;;;;12538949;28;20044;-36
2022/02/28 19:24:41;;;;;;;20.60;11.30;;;4.20;99.90;;;;;;12532028;28;20053;-40
2022/02/28 19:30:43;;;;;;;19.05;10.35;;;4.00;99.90;;;;;;12533354;28;20041;-36
2022/02/28 19:37:05;;;;;;;22.83;11.13;;;3.80;99.90;;;;;;12528042;28;20539;-40
2022/02/28 19:43:07;;;;;;;18.25;10.30;;;3.70;99.90;;;;;;12539879;28;20573;-40
2022/02/28 19:49:10;;;;;;;16.15;9.90;;;3.60;99.90;;;;;;12520868;28;20086;-40
2022/02/28 19:55:13;;;;;;;16.95;9.90;;;3.50;99.90;;;;;;12536234;28;20164;-40
2022/02/28 20:01:15;;;;;;;15.20;9.40;;;3.40;99.90;;;;;;12534359;28;20108;-37
2022/02/28 20:07:17;;;;;;;13.60;5.43;;;3.40;99.90;;;;;;12536650;28;20116;-36
2022/02/28 20:13:19;;;;;;;8.95;4.47;;;3.50;99.90;;;;;;12535906;28;20052;-41
2022/02/28 20:19:21;;;;;;;10.57;4.32;;;4.60;99.90;;;;;;12536689;28;20056;-40
2022/02/28 20:25:23;;;;;;;11.10;4.57;;;4.80;99.90;;;;;;12529022;28;20079;-40
2022/02/28 20:31:26;;;;;;;20.38;10.10;;;4.80;99.90;;;;;;12533040;28;20128;-37
2022/02/28 20:37:28;;;;;;;19.60;10.55;;;4.60;99.90;;;;;;12530171;28;20063;-36
2022/02/28 20:43:30;;;;;;;17.55;9.43;;;4.20;99.90;;;;;;12513800;28;20072;-38
2022/02/28 20:49:32;;;;;;;14.18;8.63;;;4.00;99.90;;;;;;12537945;28;20248;-42
2022/02/28 20:55:34;;;;;;;12.57;6.95;;;3.60;99.90;;;;;;12537082;28;20061;-37
2022/02/28 21:01:36;;;;;;;16.77;8.63;;;3.20;99.90;;;;;;12534208;28;20056;-40
2022/02/28 21:07:38;;;;;;;16.33;8.90;;;3.30;99.90;;;;;;12534417;28;20049;-38
2022/02/28 21:13:40;;;;;;;14.38;6.97;;;3.20;99.90;;;;;;12528543;28;20509;-37
2022/02/28 21:19:42;;;;;;;36.47;17.67;;;3.20;99.90;;;;;;12534138;28;20669;-37
2022/02/28 21:25:44;;;;;;;19.08;9.90;;;3.30;99.90;;;;;;12535719;28;20155;-37
2022/02/28 21:31:48;;;;;;;35.33;18.05;;;3.50;99.90;;;;;;12534810;28;20056;-38
2022/02/28 21:37:50;;;;;;;16.35;8.05;;;3.50;99.90;;;;;;12533424;28;20045;-37
2022/02/28 21:43:52;;;;;;;16.77;7.43;;;3.30;99.90;;;;;;12531436;28;20326;-36
2022/02/28 21:49:54;;;;;;;14.05;7.40;;;3.40;99.90;;;;;;12531369;28;20052;-36
2022/02/28 21:55:56;;;;;;;15.77;7.40;;;3.40;99.90;;;;;;12532678;28;20051;-36
2022/02/28 22:01:58;;;;;;;13.90;6.57;;;3.40;99.90;;;;;;12529858;28;20509;-39
2022/02/28 22:08:00;;;;;;;13.70;6.15;;;3.50;99.90;;;;;;12519725;28;20116;-39
2022/02/28 22:14:02;;;;;;;16.90;6.75;;;3.70;99.90;;;;;;12529863;28;20045;-40
2022/02/28 22:20:05;;;;;;;14.98;6.45;;;3.60;99.90;;;;;;12533704;28;20089;-40
2022/02/28 22:26:07;;;;;;;17.05;7.00;;;3.70;99.90;;;;;;12538806;28;20483;-36
2022/02/28 22:32:11;;;;;;;17.17;7.63;;;3.60;99.90;;;;;;12539740;28;21060;-40
2022/02/28 22:38:13;;;;;;;21.08;7.80;;;3.50;99.90;;;;;;12542360;28;20381;-36
2022/02/28 22:44:15;;;;;;;18.70;8.50;;;3.40;99.90;;;;;;12540595;28;20214;-37
2022/02/28 22:50:17;;;;;;;18.20;8.68;;;3.50;99.90;;;;;;12539008;28;20091;-39
2022/02/28 22:56:19;;;;;;;19.20;9.35;;;3.40;99.90;;;;;;12540641;28;20052;-36
2022/02/28 23:21:23;;;;;;;27.63;13.07;;;3.20;99.90;;;;;;12536183;28;20144;-42
2022/02/28 23:27:25;;;;;;;24.40;10.90;;;3.20;99.90;;;;;;12536677;28;20052;-39
2022/02/28 23:33:26;;;;;;;23.98;11.25;;;3.10;99.90;;;;;;12536245;28;20071;-36
2022/02/28 23:39:28;;;;;;;24.73;11.93;;;3.10;99.90;;;;;;12539085;28;20496;-40
2022/02/28 23:45:30;;;;;;;25.77;10.77;;;3.10;99.90;;;;;;12540001;28;20044;-40
2022/02/28 23:51:35;;;;;;;23.45;10.68;;;3.00;99.90;;;;;;12534964;28;20053;-40
2022/02/28 23:57:37;;;;;;;21.92;10.40;;;3.00;99.90;;;;;;12518330;28;20551;-40
